Time;durP1;ratioP1;P1;durP2;ratioP2;P2;SDS_P1;SDS_P2;PMS_P1;PMS_P2;Temp;Humidity;BMP_temperature;BMP_pressure;BME280_temperature;BME280_humidity;BME280_pressure;Samples;Min_cycle;Max_cycle;Signal;HPM_P1;HPM_P2
2023/01/16 00:00:07;;;;;;;5.03;2.13;;;5.60;99.90;;;;;;5080628;28;20203;-70
2023/01/16 00:02:33;;;;;;;2.70;1.93;;;5.60;99.90;;;;;;5083304;28;20192;-70
2023/01/16 00:05:00;;;;;;;2.60;1.70;;;5.60;99.90;;;;;;5074305;28;20196;-70
2023/01/16 00:07:27;;;;;;;3.30;1.80;;;5.60;99.90;;;;;;5061169;28;20211;-70
2023/01/16 00:09:54;;;;;;;4.23;1.70;;;5.60;99.90;;;;;;5071074;28;20196;-70
2023/01/16 00:12:21;;;;;;;2.23;1.60;;;5.60;99.90;;;;;;5078358;28;20246;-70
2023/01/16 00:14:48;;;;;;;4.73;2.13;;;5.60;99.90;;;;;;5069497;28;20745;-70
2023/01/16 00:17:16;;;;;;;5.07;1.70;;;5.60;99.90;;;;;;5075811;28;20231;-70
2023/01/16 00:19:43;;;;;;;3.57;1.40;;;5.60;99.90;;;;;;5072484;28;20196;-70
2023/01/16 00:22:10;;;;;;;2.30;1.43;;;5.60;99.90;;;;;;5054552;28;20207;-70
2023/01/16 00:24:36;;;;;;;4.40;1.77;;;5.60;99.90;;;;;;5080313;28;20196;-70
2023/01/16 00:27:03;;;;;;;3.80;1.40;;;5.60;99.90;;;;;;5075968;28;20227;-70
2023/01/16 00:29:30;;;;;;;4.40;1.30;;;5.60;99.90;;;;;;5062670;28;20230;-70
2023/01/16 00:31:57;;;;;;;3.37;1.67;;;5.50;99.90;;;;;;5064581;28;20204;-70
2023/01/16 00:34:26;;;;;;;3.13;1.60;;;5.50;99.90;;;;;;5064767;28;20196;-70
2023/01/16 00:36:53;;;;;;;4.73;1.90;;;5.50;99.90;;;;;;5030103;28;26811;-70
2023/01/16 00:39:19;;;;;;;2.40;1.67;;;5.50;99.90;;;;;;5072802;28;20210;-67
2023/01/16 00:41:46;;;;;;;5.83;1.87;;;5.50;99.90;;;;;;5074998;28;20195;-68
2023/01/16 00:44:15;;;;;;;2.60;1.83;;;5.50;99.90;;;;;;5079033;28;20191;-68
2023/01/16 00:46:42;;;;;;;3.27;2.10;;;5.50;99.90;;;;;;5069870;28;20214;-68
2023/01/16 00:49:09;;;;;;;2.43;1.80;;;5.50;99.90;;;;;;5078609;28;20205;-68
2023/01/16 00:51:38;;;;;;;2.33;1.90;;;5.50;99.90;;;;;;5026738;28;20286;-71
2023/01/16 00:54:05;;;;;;;5.50;2.30;;;5.50;99.90;;;;;;5074633;28;20767;-70
2023/01/16 00:56:32;;;;;;;3.50;2.20;;;5.50;99.90;;;;;;5074487;28;20203;-70
2023/01/16 00:58:58;;;;;;;2.13;1.70;;;5.50;99.90;;;;;;5075208;28;20238;-70
2023/01/16 01:01:25;;;;;;;3.20;1.57;;;5.50;99.90;;;;;;5080225;28;20203;-70
2023/01/16 01:03:52;;;;;;;8.73;1.40;;;5.50;99.90;;;;;;5065055;28;20667;-70
2023/01/16 01:06:19;;;;;;;4.13;1.40;;;5.50;99.90;;;;;;5067608;28;20751;-70
2023/01/16 01:08:47;;;;;;;3.87;1.60;;;5.40;99.90;;;;;;5048417;28;20202;-70
2023/01/16 01:11:15;;;;;;;5.63;1.40;;;5.40;99.90;;;;;;5080728;28;20227;-70
2023/01/16 01:13:43;;;;;;;1.93;1.20;;;5.40;99.90;;;;;;5073042;28;21095;-70
2023/01/16 01:16:11;;;;;;;2.50;1.20;;;5.40;99.90;;;;;;5078212;28;20195;-70
2023/01/16 01:18:39;;;;;;;3.83;1.37;;;5.40;99.90;;;;;;5067864;28;21032;-70
2023/01/16 01:21:06;;;;;;;2.70;1.40;;;5.40;99.90;;;;;;5075731;28;20195;-70
2023/01/16 01:23:34;;;;;;;1.43;1.10;;;5.30;99.90;;;;;;5034758;28;20218;-70
2023/01/16 01:26:08;;;;;;;1.37;1.20;;;5.30;99.90;;;;;;5078154;28;20201;-70
2023/01/16 01:28:35;;;;;;;3.47;1.20;;;5.30;99.90;;;;;;5074334;28;20203;-70
2023/01/16 01:31:03;;;;;;;4.50;1.47;;;5.20;99.90;;;;;;5079825;28;20199;-70
2023/01/16 01:33:30;;;;;;;3.43;1.27;;;5.20;99.90;;;;;;5076921;28;20204;-70
2023/01/16 01:35:57;;;;;;;4.43;1.47;;;5.20;99.90;;;;;;5067375;28;20203;-70
2023/01/16 01:38:24;;;;;;;2.37;1.40;;;5.20;99.90;;;;;;5060209;28;20229;-71
2023/01/16 01:40:51;;;;;;;4.63;1.20;;;5.20;99.90;;;;;;5062254;28;20301;-70
2023/01/16 01:43:19;;;;;;;2.00;1.50;;;5.10;99.90;;;;;;5081102;28;20199;-70
2023/01/16 01:45:49;;;;;;;3.63;1.10;;;5.10;99.90;;;;;;5077838;28;20203;-70
2023/01/16 01:48:23;;;;;;;5.83;1.60;;;5.10;99.90;;;;;;5082865;28;20196;-70
2023/01/16 01:50:54;;;;;;;3.33;1.17;;;5.10;99.90;;;;;;5074587;28;20241;-71
2023/01/16 01:53:28;;;;;;;2.77;1.40;;;5.10;99.90;;;;;;5067179;28;20204;-70
2023/01/16 01:55:58;;;;;;;1.27;1.00;;;5.10;99.90;;;;;;5071143;28;20214;-70
2023/01/16 01:58:28;;;;;;;4.90;1.23;;;5.10;99.90;;;;;;5081496;28;20779;-70
2023/01/16 02:00:57;;;;;;;3.20;1.30;;;5.10;99.90;;;;;;5081060;28;20196;-70
2023/01/16 02:03:29;;;;;;;3.30;1.20;;;5.30;99.90;;;;;;5083100;28;20192;-70
2023/01/16 02:05:58;;;;;;;5.20;1.87;;;5.00;99.90;;;;;;5073055;28;20203;-70
2023/01/16 02:08:29;;;;;;;4.37;1.43;;;5.00;99.90;;;;;;5069411;28;20211;-70
2023/01/16 02:11:01;;;;;;;2.87;1.27;;;5.00;99.90;;;;;;5052425;28;20229;-70
2023/01/16 02:13:30;;;;;;;3.87;1.73;;;5.00;99.90;;;;;;5076852;28;20199;-70
2023/01/16 02:22:12;;;;;;;2.57;1.33;;;4.90;99.90;;;;;;5007058;28;20237;-70
2023/01/16 02:25:10;;;;;;;1.87;1.40;;;5.00;99.90;;;;;;5000456;28;20213;-70
2023/01/16 02:28:01;;;;;;;3.00;1.23;;;4.90;99.90;;;;;;5062800;28;20693;-70
2023/01/16 02:31:17;;;;;;;3.73;1.43;;;4.90;99.90;;;;;;5079169;28;20322;-70
2023/01/16 02:34:02;;;;;;;4.33;1.23;;;5.00;99.90;;;;;;4973461;28;20203;-70
2023/01/16 02:36:41;;;;;;;4.87;1.30;;;4.90;99.90;;;;;;4968349;28;20814;-70
2023/01/16 02:39:15;;;;;;;3.57;1.30;;;4.90;99.90;;;;;;5033508;28;20233;-70
2023/01/16 02:41:50;;;;;;;5.13;1.40;;;4.90;99.90;;;;;;5048394;28;20204;-70
2023/01/16 02:44:25;;;;;;;2.83;1.20;;;5.00;99.90;;;;;;5078964;28;20203;-70
2023/01/16 02:47:00;;;;;;;4.60;1.43;;;5.00;99.90;;;;;;5083695;28;20202;-70
2023/01/16 02:49:33;;;;;;;3.97;1.60;;;5.00;99.90;;;;;;5073891;28;20205;-70
2023/01/16 02:52:06;;;;;;;3.03;1.40;;;5.00;99.90;;;;;;5071018;28;20204;-70
2023/01/16 02:54:38;;;;;;;3.30;1.80;;;5.00;99.90;;;;;;5078378;28;20200;-70
2023/01/16 02:57:10;;;;;;;4.53;1.47;;;5.00;99.90;;;;;;5042947;28;20207;-70
2023/01/16 02:59:37;;;;;;;3.63;1.60;;;5.00;99.90;;;;;;5079303;28;20717;-70
2023/01/16 03:02:04;;;;;;;7.00;2.07;;;5.00;99.90;;;;;;5082999;28;20774;-68
2023/01/16 03:04:56;;;;;;;3.57;1.77;;;5.10;99.90;;;;;;5079877;28;20194;-68
2023/01/16 03:07:39;;;;;;;3.83;1.53;;;5.10;99.90;;;;;;5054406;28;20771;-68
2023/01/16 03:10:35;;;;;;;5.47;1.47;;;5.10;99.90;;;;;;5081933;28;20207;-68
2023/01/16 03:13:15;;;;;;;3.93;1.97;;;5.10;99.90;;;;;;5019770;28;20212;-68
2023/01/16 03:15:52;;;;;;;2.63;1.47;;;5.10;99.90;;;;;;5051710;28;20196;-69
2023/01/16 03:18:30;;;;;;;5.27;2.03;;;5.10;99.90;;;;;;5056816;28;20220;-68
2023/01/16 03:21:05;;;;;;;4.40;1.77;;;5.10;99.90;;;;;;5060696;28;20210;-69
2023/01/16 03:23:40;;;;;;;4.60;1.57;;;5.20;99.90;;;;;;5055018;28;20199;-69
2023/01/16 03:26:15;;;;;;;4.97;1.60;;;5.20;99.90;;;;;;5049092;28;20207;-68
2023/01/16 03:28:51;;;;;;;3.07;1.83;;;5.20;99.90;;;;;;5036359;28;20210;-68
2023/01/16 03:31:26;;;;;;;4.57;1.47;;;5.20;99.90;;;;;;5056026;28;20200;-68
2023/01/16 03:34:02;;;;;;;5.37;2.00;;;5.20;99.90;;;;;;5054911;28;20297;-69
2023/01/16 03:36:35;;;;;;;3.27;1.60;;;5.10;99.90;;;;;;5063226;28;21472;-68
2023/01/16 03:39:06;;;;;;;2.30;1.47;;;5.10;99.90;;;;;;5057770;28;20225;-69
2023/01/16 03:41:35;;;;;;;6.00;1.50;;;5.00;99.90;;;;;;5054980;28;20253;-68
2023/01/16 03:44:08;;;;;;;2.83;1.80;;;5.00;99.90;;;;;;5019305;28;20200;-68
2023/01/16 03:46:42;;;;;;;3.90;1.50;;;5.00;99.90;;;;;;5043424;28;20235;-69
2023/01/16 03:49:12;;;;;;;2.43;1.73;;;5.00;99.90;;;;;;5046564;28;20234;-68
2023/01/16 03:51:45;;;;;;;7.80;1.70;;;4.90;99.90;;;;;;5062053;28;20581;-70
2023/01/16 03:54:22;;;;;;;7.47;1.87;;;5.00;99.90;;;;;;5057022;28;20204;-69
2023/01/16 03:56:57;;;;;;;7.33;2.13;;;5.10;99.90;;;;;;5062409;28;20212;-69
2023/01/16 03:59:24;;;;;;;4.13;1.67;;;5.10;99.90;;;;;;5023533;28;20234;-70
2023/01/16 04:01:56;;;;;;;5.17;1.73;;;5.10;99.90;;;;;;5053610;28;20207;-70
2023/01/16 04:04:27;;;;;;;4.60;1.83;;;5.10;99.90;;;;;;5041439;28;20235;-70
2023/01/16 04:06:59;;;;;;;5.77;2.10;;;5.10;99.90;;;;;;5061307;28;20199;-70
2023/01/16 04:09:35;;;;;;;2.97;1.50;;;5.10;99.90;;;;;;5057700;28;20193;-70
2023/01/16 04:12:03;;;;;;;5.53;1.57;;;5.10;99.90;;;;;;5070864;28;20237;-70
2023/01/16 04:14:32;;;;;;;6.90;1.67;;;5.10;99.90;;;;;;5036374;28;20222;-68
2023/01/16 04:16:59;;;;;;;4.07;1.60;;;5.10;99.90;;;;;;5080501;28;20209;-68
2023/01/16 04:19:29;;;;;;;4.20;1.70;;;5.10;99.90;;;;;;5056219;28;20226;-68
2023/01/16 04:21:57;;;;;;;4.67;1.70;;;5.10;99.90;;;;;;5067935;28;20204;-68
2023/01/16 04:24:24;;;;;;;3.33;1.47;;;5.20;99.90;;;;;;5085381;28;20290;-68
2023/01/16 04:26:51;;;;;;;3.20;1.50;;;5.20;99.90;;;;;;5067249;28;20957;-68
2023/01/16 04:29:19;;;;;;;4.53;1.83;;;5.10;99.90;;;;;;5067641;28;20211;-68
2023/01/16 04:31:46;;;;;;;3.90;1.80;;;5.10;99.90;;;;;;5049324;28;20333;-69
2023/01/16 04:34:13;;;;;;;7.57;1.53;;;5.20;99.90;;;;;;5079392;28;20676;-69
2023/01/16 04:36:40;;;;;;;1.67;1.30;;;5.10;99.90;;;;;;5068377;28;20235;-69
2023/01/16 04:39:09;;;;;;;3.20;1.70;;;5.10;99.90;;;;;;5074124;28;20243;-68
2023/01/16 04:41:36;;;;;;;3.07;1.57;;;5.10;99.90;;;;;;5064163;28;20674;-68
2023/01/16 04:44:06;;;;;;;3.33;1.50;;;5.10;99.90;;;;;;5064618;28;20199;-69
2023/01/16 04:46:33;;;;;;;2.23;1.43;;;5.10;99.90;;;;;;5048130;28;20215;-68
2023/01/16 04:49:01;;;;;;;2.70;1.37;;;5.10;99.90;;;;;;5058515;28;20644;-69
2023/01/16 04:51:28;;;;;;;1.30;1.20;;;5.10;99.90;;;;;;5057848;28;20203;-69
2023/01/16 04:53:55;;;;;;;2.50;1.50;;;5.10;99.90;;;;;;5070854;28;21072;-69
2023/01/16 04:56:24;;;;;;;2.87;1.40;;;5.10;99.90;;;;;;5066900;28;20205;-69
2023/01/16 04:58:52;;;;;;;7.30;1.67;;;5.10;99.90;;;;;;5056058;28;20230;-69
2023/01/16 05:01:20;;;;;;;5.10;1.73;;;5.10;99.90;;;;;;5040657;28;20216;-69
2023/01/16 05:03:47;;;;;;;2.63;1.37;;;5.10;99.90;;;;;;5069518;28;20193;-69
2023/01/16 05:06:14;;;;;;;4.83;1.23;;;5.10;99.90;;;;;;5079113;28;20292;-69
2023/01/16 05:08:41;;;;;;;3.17;1.33;;;5.00;99.90;;;;;;5066839;28;20293;-69
2023/01/16 05:11:08;;;;;;;3.90;1.07;;;4.90;99.90;;;;;;5074819;28;20227;-69
2023/01/16 05:13:36;;;;;;;1.47;1.20;;;4.90;99.90;;;;;;5072275;28;20211;-69
2023/01/16 05:16:04;;;;;;;1.63;1.10;;;4.90;99.90;;;;;;5045851;28;20208;-69
2023/01/16 05:18:31;;;;;;;1.27;1.17;;;4.90;99.90;;;;;;5072527;28;20694;-69
2023/01/16 05:20:59;;;;;;;2.43;1.00;;;4.90;99.90;;;;;;5073190;28;20205;-69
2023/01/16 05:23:26;;;;;;;10.80;3.17;;;4.90;99.90;;;;;;5054297;28;20208;-69
2023/01/16 05:25:53;;;;;;;2.83;2.17;;;4.90;99.90;;;;;;5071117;28;20213;-69
2023/01/16 05:28:20;;;;;;;5.07;2.40;;;4.90;99.90;;;;;;5050660;28;20250;-69
2023/01/16 05:30:49;;;;;;;5.53;1.57;;;4.90;99.90;;;;;;5066497;28;20208;-69
2023/01/16 05:33:16;;;;;;;2.73;1.20;;;4.90;99.90;;;;;;5032950;28;20223;-69
2023/01/16 05:35:43;;;;;;;4.37;1.50;;;4.90;99.90;;;;;;5063554;28;20600;-69
2023/01/16 05:38:10;;;;;;;1.60;1.33;;;4.90;99.90;;;;;;5067387;28;20227;-69
2023/01/16 05:40:37;;;;;;;3.47;1.70;;;4.90;99.90;;;;;;5065667;28;20246;-69
2023/01/16 05:43:04;;;;;;;2.90;1.70;;;4.90;99.90;;;;;;5073352;28;20199;-69
2023/01/16 05:45:31;;;;;;;3.47;1.50;;;4.90;99.90;;;;;;5067243;28;20203;-69
2023/01/16 05:47:59;;;;;;;1.40;1.30;;;5.00;99.90;;;;;;5053002;28;20201;-68
2023/01/16 05:50:26;;;;;;;2.57;1.60;;;4.90;99.90;;;;;;5074414;28;20211;-69
2023/01/16 05:52:53;;;;;;;1.83;1.37;;;4.90;99.90;;;;;;5075680;28;20451;-69
2023/01/16 05:55:19;;;;;;;1.80;1.43;;;4.90;99.90;;;;;;5070091;28;20203;-69
2023/01/16 05:57:46;;;;;;;1.73;1.33;;;4.90;99.90;;;;;;5078679;28;20569;-69
2023/01/16 06:00:14;;;;;;;2.07;1.37;;;4.90;99.90;;;;;;5045187;28;20227;-69
2023/01/16 06:02:41;;;;;;;2.07;1.60;;;5.00;99.90;;;;;;5038841;28;20266;-69
2023/01/16 06:05:10;;;;;;;1.60;1.50;;;5.00;99.90;;;;;;5075924;28;20250;-69
2023/01/16 06:07:37;;;;;;;3.43;1.83;;;5.00;99.90;;;;;;5071795;28;20210;-69
2023/01/16 06:10:05;;;;;;;2.23;1.60;;;5.00;99.90;;;;;;5069237;28;20238;-69
2023/01/16 06:12:32;;;;;;;3.50;1.70;;;5.00;99.90;;;;;;5073790;28;20242;-69
2023/01/16 06:14:58;;;;;;;3.87;1.80;;;4.90;99.90;;;;;;5052879;28;20211;-69
2023/01/16 06:17:25;;;;;;;3.93;1.87;;;4.90;99.90;;;;;;5060061;28;20257;-69
2023/01/16 06:19:52;;;;;;;2.20;1.80;;;4.90;99.90;;;;;;5031834;28;20661;-69
2023/01/16 06:22:21;;;;;;;2.83;1.67;;;4.90;99.90;;;;;;5075623;28;20196;-68
2023/01/16 06:24:47;;;;;;;2.53;1.90;;;4.80;99.90;;;;;;5076695;28;20277;-68
2023/01/16 06:27:14;;;;;;;5.67;2.53;;;4.80;99.90;;;;;;5053853;28;20244;-68
2023/01/16 06:29:41;;;;;;;17.50;7.20;;;4.80;99.90;;;;;;5072211;27;20901;-68
2023/01/16 06:32:08;;;;;;;13.10;5.80;;;4.80;99.90;;;;;;5083872;28;20225;-69
2023/01/16 06:34:35;;;;;;;5.13;3.10;;;4.80;99.90;;;;;;5053229;28;20211;-68
2023/01/16 06:37:01;;;;;;;8.80;3.17;;;4.80;99.90;;;;;;5085213;28;20207;-68
2023/01/16 06:39:30;;;;;;;3.33;2.60;;;4.70;99.90;;;;;;5078515;28;20227;-68
2023/01/16 06:41:56;;;;;;;5.10;2.40;;;4.80;99.90;;;;;;5068936;28;20204;-69
2023/01/16 06:44:23;;;;;;;3.87;2.60;;;4.70;99.90;;;;;;5082707;28;20192;-68
2023/01/16 06:46:50;;;;;;;3.70;2.60;;;4.80;99.90;;;;;;5067169;28;21555;-68
2023/01/16 06:49:17;;;;;;;4.73;2.90;;;4.80;99.90;;;;;;5052695;28;20226;-68
2023/01/16 06:51:44;;;;;;;4.23;2.47;;;4.70;99.90;;;;;;5081776;28;20210;-69
2023/01/16 06:54:11;;;;;;;2.77;2.40;;;4.70;99.90;;;;;;5080747;28;20199;-67
2023/01/16 06:56:39;;;;;;;3.17;2.40;;;4.60;99.90;;;;;;5070491;28;20207;-68
2023/01/16 06:59:06;;;;;;;5.50;3.03;;;4.60;99.90;;;;;;5074501;28;20229;-68
2023/01/16 07:01:33;;;;;;;4.73;2.23;;;4.50;99.90;;;;;;5059857;28;21099;-68
2023/01/16 07:03:59;;;;;;;1.80;1.70;;;4.50;99.90;;;;;;5081695;28;20203;-68
2023/01/16 07:06:26;;;;;;;4.47;2.23;;;4.50;99.90;;;;;;5040287;28;20228;-68
2023/01/16 07:08:53;;;;;;;3.17;1.80;;;4.50;99.90;;;;;;5048384;28;20215;-71
2023/01/16 07:11:21;;;;;;;5.17;2.03;;;4.50;99.90;;;;;;5078974;28;20228;-69
2023/01/16 07:22:33;;;;;;;4.27;1.83;;;4.70;99.90;;;;;;5062048;27;20201;-68
2023/01/16 07:24:49;;;;;;;3.77;1.90;;;4.60;99.90;;;;;;5076559;28;20339;-69
2023/01/16 07:27:15;;;;;;;5.47;1.80;;;4.60;99.90;;;;;;5083324;28;20216;-69
2023/01/16 07:29:44;;;;;;;3.07;2.03;;;4.50;99.90;;;;;;5070721;28;20207;-69
2023/01/16 07:32:11;;;;;;;4.27;2.00;;;4.50;99.90;;;;;;5070798;28;23141;-69
2023/01/16 07:34:38;;;;;;;3.83;2.13;;;4.60;99.90;;;;;;5072487;28;20201;-69
2023/01/16 07:37:07;;;;;;;3.30;1.83;;;4.50;99.90;;;;;;5062355;28;20200;-69
2023/01/16 07:39:33;;;;;;;3.10;1.80;;;4.50;99.90;;;;;;5085173;28;20314;-69
2023/01/16 07:42:04;;;;;;;8.73;4.57;;;4.60;99.90;;;;;;5083272;28;20202;-68
2023/01/16 07:44:31;;;;;;;27.90;13.67;;;4.50;99.90;;;;;;5074501;28;20601;-69
2023/01/16 07:46:59;;;;;;;10.87;6.40;;;4.50;99.90;;;;;;5071644;28;20208;-69
2023/01/16 07:49:26;;;;;;;27.93;14.23;;;4.60;99.90;;;;;;5080182;28;20930;-69
2023/01/16 07:51:52;;;;;;;14.70;7.47;;;4.60;99.90;;;;;;5053133;28;20211;-68
2023/01/16 07:54:21;;;;;;;9.23;5.30;;;4.70;99.90;;;;;;5081417;28;20204;-69
2023/01/16 07:56:48;;;;;;;15.80;9.13;;;4.70;99.90;;;;;;5085885;28;20207;-68
2023/01/16 07:59:15;;;;;;;15.70;8.77;;;4.70;99.90;;;;;;5072029;28;20227;-69
2023/01/16 08:01:42;;;;;;;8.00;6.07;;;4.70;99.90;;;;;;5074577;28;21080;-69
2023/01/16 08:04:10;;;;;;;6.47;3.83;;;4.70;99.90;;;;;;5072068;28;20270;-69
2023/01/16 08:06:37;;;;;;;3.43;2.77;;;4.70;99.90;;;;;;5076012;28;20220;-69
2023/01/16 08:09:04;;;;;;;5.47;2.70;;;4.60;99.90;;;;;;5064097;28;20602;-69
2023/01/16 08:11:38;;;;;;;7.27;3.10;;;4.70;99.90;;;;;;5085113;28;20810;-69
2023/01/16 08:14:07;;;;;;;4.03;2.40;;;4.70;99.90;;;;;;5067583;28;21147;-69
2023/01/16 08:16:34;;;;;;;3.23;2.13;;;4.60;99.90;;;;;;5073777;28;20348;-69
2023/01/16 08:19:01;;;;;;;2.93;1.83;;;4.70;99.90;;;;;;5077950;28;20239;-69
2023/01/16 08:21:29;;;;;;;3.20;1.90;;;4.60;99.90;;;;;;5064530;28;20367;-69
2023/01/16 08:23:56;;;;;;;2.30;1.90;;;4.60;99.90;;;;;;5052729;28;20207;-69
2023/01/16 08:26:23;;;;;;;4.37;2.27;;;4.60;99.90;;;;;;5083821;28;20193;-69
2023/01/16 08:28:51;;;;;;;4.17;1.63;;;4.60;99.90;;;;;;5070895;28;20200;-70
2023/01/16 08:31:18;;;;;;;7.87;1.67;;;4.60;99.90;;;;;;5083612;28;20200;-69
2023/01/16 08:33:46;;;;;;;5.03;1.83;;;4.50;99.90;;;;;;5071268;28;20203;-69
2023/01/16 08:36:15;;;;;;;3.47;1.27;;;4.50;99.90;;;;;;5070900;28;20204;-69
2023/01/16 08:38:43;;;;;;;3.80;1.90;;;4.60;99.90;;;;;;5055001;28;20798;-69
2023/01/16 08:51:21;;;;;;;5.00;1.80;;;4.60;99.90;;;;;;5076415;28;20787;-69
2023/01/16 08:52:12;;;;;;;4.13;1.60;;;4.60;99.90;;;;;;5066507;28;20214;-68
2023/01/16 08:54:40;;;;;;;6.27;1.50;;;4.60;99.90;;;;;;5044848;28;20280;-68
2023/01/16 08:57:07;;;;;;;4.17;1.77;;;4.60;99.90;;;;;;5084958;28;20195;-68
2023/01/16 08:59:34;;;;;;;2.00;1.30;;;4.70;99.90;;;;;;5081863;28;20310;-69
2023/01/16 09:02:02;;;;;;;6.67;1.20;;;4.70;99.90;;;;;;5067030;28;20198;-68
2023/01/16 09:04:28;;;;;;;3.00;1.20;;;4.70;99.90;;;;;;5070104;28;20771;-68
2023/01/16 09:06:55;;;;;;;2.73;1.10;;;4.80;99.90;;;;;;5067333;28;21081;-69
2023/01/16 09:09:22;;;;;;;4.07;1.23;;;4.70;99.90;;;;;;5048715;28;20214;-68
2023/01/16 09:14:41;;;;;;;2.07;0.97;;;4.80;99.90;;;;;;5078662;27;20210;-69
2023/01/16 09:17:08;;;;;;;2.20;1.07;;;4.80;99.90;;;;;;5067661;28;20200;-69
2023/01/16 09:19:35;;;;;;;0.80;0.80;;;4.80;99.90;;;;;;5066381;28;20222;-68
2023/01/16 09:22:05;;;;;;;3.33;0.93;;;4.80;99.90;;;;;;5077939;28;20203;-68
2023/01/16 09:24:32;;;;;;;0.80;0.80;;;4.90;99.90;;;;;;5055530;28;20208;-68
2023/01/16 09:27:01;;;;;;;3.63;0.87;;;4.90;99.90;;;;;;5073966;28;20202;-69
2023/01/16 09:29:28;;;;;;;5.10;0.90;;;4.90;99.90;;;;;;5073524;28;20196;-69
2023/01/16 09:31:55;;;;;;;3.57;1.20;;;5.00;99.90;;;;;;5063206;28;20211;-69
2023/01/16 09:34:22;;;;;;;3.00;1.47;;;4.90;99.90;;;;;;5077878;28;20222;-68
2023/01/16 09:36:49;;;;;;;1.87;1.20;;;5.00;99.90;;;;;;5070136;28;20204;-69
2023/01/16 09:39:17;;;;;;;3.60;1.60;;;5.00;99.90;;;;;;5074224;28;20195;-69
2023/01/16 09:44:45;;;;;;;3.37;1.40;;;5.00;99.90;;;;;;5080588;28;20234;-69
2023/01/16 09:47:12;;;;;;;3.13;1.20;;;5.00;99.90;;;;;;5081395;28;20201;-69
2023/01/16 09:49:47;;;;;;;3.00;1.43;;;5.00;99.90;;;;;;5061963;28;20950;-69
2023/01/16 10:00:45;;;;;;;14.90;5.40;;;5.10;99.90;;;;;;5068471;28;20253;-69
2023/01/16 10:03:12;;;;;;;1.77;1.27;;;5.10;99.90;;;;;;5072331;28;20797;-70
2023/01/16 10:05:47;;;;;;;3.33;2.07;;;5.10;99.90;;;;;;5069172;28;20195;-70
2023/01/16 10:08:20;;;;;;;3.37;2.13;;;5.10;99.90;;;;;;5077668;28;20202;-70
2023/01/16 10:10:55;;;;;;;2.37;1.60;;;5.20;99.90;;;;;;5072368;28;20199;-69
2023/01/16 10:13:59;;;;;;;3.20;1.63;;;5.30;99.90;;;;;;5056105;28;20209;-68
2023/01/16 10:16:38;;;;;;;2.60;1.70;;;5.20;99.90;;;;;;5084193;28;20199;-68
2023/01/16 10:19:12;;;;;;;3.60;1.33;;;5.30;99.90;;;;;;5071241;28;20668;-68
2023/01/16 10:22:07;;;;;;;1.47;1.00;;;5.30;99.90;;;;;;5072155;28;20219;-68
2023/01/16 10:24:49;;;;;;;1.73;0.90;;;5.30;99.90;;;;;;5083620;27;20195;-68
2023/01/16 10:27:19;;;;;;;1.43;1.07;;;5.30;99.90;;;;;;5077554;28;20296;-68
2023/01/16 10:29:52;;;;;;;2.10;1.13;;;5.30;99.90;;;;;;5054375;28;20214;-68
2023/01/16 10:32:27;;;;;;;1.07;0.93;;;5.40;99.90;;;;;;5088255;28;20199;-68
2023/01/16 10:35:03;;;;;;;2.27;1.07;;;5.30;99.90;;;;;;5068074;28;20210;-68
2023/01/16 10:37:31;;;;;;;1.97;1.00;;;5.30;99.90;;;;;;5065723;28;20207;-68
2023/01/16 10:40:01;;;;;;;1.93;1.20;;;5.30;99.90;;;;;;5079630;28;20249;-69
2023/01/16 10:50:56;;;;;;;3.87;1.13;;;5.40;99.90;;;;;;5072382;28;20226;-69
2023/01/16 10:53:23;;;;;;;2.20;1.10;;;5.50;99.90;;;;;;5074180;28;20678;-69
2023/01/16 10:55:52;;;;;;;1.13;0.97;;;5.50;99.90;;;;;;5082615;28;20200;-69
2023/01/16 10:58:27;;;;;;;2.67;1.00;;;5.50;99.90;;;;;;5073306;28;20206;-68
2023/01/16 11:00:57;;;;;;;2.17;1.70;;;5.50;99.90;;;;;;5052295;28;20230;-68
2023/01/16 11:03:33;;;;;;;6.67;3.57;;;5.50;99.90;;;;;;5086197;28;20214;-69
2023/01/16 11:06:09;;;;;;;2.13;1.47;;;5.50;99.90;;;;;;5068816;28;20218;-69
2023/01/16 11:08:36;;;;;;;5.23;3.37;;;5.50;99.90;;;;;;5061282;28;20196;-69
2023/01/16 11:11:04;;;;;;;9.53;4.17;;;5.50;99.90;;;;;;5092748;27;20231;-69
2023/01/16 11:19:24;;;;;;;5.50;1.50;;;5.60;99.90;;;;;;5086064;28;20234;-68
2023/01/16 11:21:53;;;;;;;1.17;1.07;;;5.60;99.90;;;;;;5068189;28;20957;-69
2023/01/16 11:24:22;;;;;;;3.47;1.37;;;5.60;99.90;;;;;;5085122;28;20287;-68
2023/01/16 11:26:52;;;;;;;1.77;1.23;;;5.40;99.90;;;;;;5072453;28;21704;-69
2023/01/16 11:29:23;;;;;;;7.10;1.20;;;5.60;99.90;;;;;;5078660;28;20252;-68
2023/01/16 11:31:54;;;;;;;2.37;1.40;;;5.60;99.90;;;;;;5050764;28;22265;-68
2023/01/16 11:34:26;;;;;;;3.00;1.07;;;5.60;99.90;;;;;;5075363;28;20197;-68
2023/01/16 11:36:54;;;;;;;7.63;1.37;;;5.60;99.90;;;;;;5069278;28;20816;-69
2023/01/16 11:39:23;;;;;;;1.30;1.03;;;5.60;99.90;;;;;;5085089;28;20834;-69
2023/01/16 11:41:53;;;;;;;2.67;1.10;;;5.60;99.90;;;;;;5066939;28;20984;-67
2023/01/16 11:47:18;;;;;;;8.57;3.90;;;5.60;99.90;;;;;;5079973;28;20705;-67
2023/01/16 11:49:48;;;;;;;7.80;4.37;;;5.50;99.90;;;;;;5052603;28;20222;-67
2023/01/16 11:52:26;;;;;;;3.90;3.03;;;5.50;99.90;;;;;;5086808;28;20233;-68
2023/01/16 11:54:55;;;;;;;4.33;2.63;;;5.50;99.90;;;;;;5078719;28;20683;-68
2023/01/16 11:57:35;;;;;;;3.70;1.87;;;5.40;99.90;;;;;;5074447;28;20201;-67
2023/01/16 12:00:38;;;;;;;1.40;1.10;;;5.40;99.90;;;;;;5072286;28;20202;-68
2023/01/16 12:03:35;;;;;;;3.20;1.90;;;5.40;99.90;;;;;;5056658;28;20547;-70
2023/01/16 12:06:12;;;;;;;1.77;1.17;;;5.40;99.90;;;;;;5081935;28;20222;-70
2023/01/16 12:08:59;;;;;;;1.10;0.90;;;5.40;99.90;;;;;;5070788;28;20191;-70
2023/01/16 12:11:50;;;;;;;3.97;1.10;;;5.40;99.90;;;;;;5083042;28;20950;-69
2023/01/16 12:14:22;;;;;;;4.17;1.13;;;5.50;99.90;;;;;;5075275;28;20195;-69
2023/01/16 12:17:01;;;;;;;1.53;0.93;;;5.50;99.90;;;;;;5066586;28;20204;-69
2023/01/16 12:19:52;;;;;;;1.00;0.80;;;5.50;99.90;;;;;;5053918;28;20587;-69
2023/01/16 12:22:31;;;;;;;2.73;0.80;;;5.50;99.90;;;;;;5084411;28;21766;-69
2023/01/16 12:25:06;;;;;;;1.90;1.13;;;5.50;99.90;;;;;;5069624;28;20199;-69
2023/01/16 12:27:43;;;;;;;2.87;0.90;;;5.40;99.90;;;;;;5074471;28;20844;-69
2023/01/16 12:30:24;;;;;;;2.50;0.97;;;5.40;99.90;;;;;;5075987;28;20206;-70
2023/01/16 12:33:09;;;;;;;1.73;0.97;;;5.40;99.90;;;;;;5077534;28;20196;-69
2023/01/16 12:35:45;;;;;;;2.60;0.83;;;5.40;99.90;;;;;;5042337;28;20622;-69
2023/01/16 12:38:18;;;;;;;1.60;1.00;;;5.40;99.90;;;;;;5081139;28;20199;-68
2023/01/16 12:44:23;;;;;;;3.23;0.83;;;5.40;99.90;;;;;;5059260;28;20214;-68
2023/01/16 12:47:02;;;;;;;1.20;1.00;;;5.40;99.90;;;;;;5067522;28;20215;-68
2023/01/16 12:49:45;;;;;;;1.50;0.83;;;5.40;99.90;;;;;;5063135;28;20200;-69
2023/01/16 12:52:25;;;;;;;4.17;1.00;;;5.40;99.90;;;;;;5078657;28;20206;-69
2023/01/16 12:55:09;;;;;;;3.60;1.20;;;5.40;99.90;;;;;;5063968;28;20203;-68
2023/01/16 12:58:00;;;;;;;4.10;1.10;;;5.40;99.90;;;;;;5067858;28;20430;-69
2023/01/16 13:00:33;;;;;;;1.10;0.80;;;5.40;99.90;;;;;;5061549;28;20201;-69
2023/01/16 13:03:09;;;;;;;4.27;1.33;;;5.50;99.90;;;;;;5042975;28;20723;-69
2023/01/16 13:05:39;;;;;;;3.80;1.20;;;5.50;99.90;;;;;;5051099;28;20205;-68
2023/01/16 13:08:26;;;;;;;4.17;1.10;;;5.60;99.90;;;;;;5066292;28;20230;-69
2023/01/16 13:14:04;;;;;;;2.30;1.07;;;5.60;99.90;;;;;;4963737;28;20672;-69
2023/01/16 13:16:34;;;;;;;1.17;0.93;;;5.50;99.90;;;;;;5051077;28;20210;-69
2023/01/16 13:19:06;;;;;;;1.70;0.93;;;5.50;99.90;;;;;;5081534;28;20199;-69
2023/01/16 13:21:39;;;;;;;0.93;0.83;;;5.50;99.90;;;;;;5035548;28;20230;-69
2023/01/16 13:24:15;;;;;;;1.90;0.97;;;5.50;99.90;;;;;;5062763;28;20226;-69
2023/01/16 13:26:46;;;;;;;1.40;0.90;;;5.50;99.90;;;;;;5035051;28;20208;-69
2023/01/16 13:29:20;;;;;;;2.63;1.13;;;5.40;99.90;;;;;;5054585;28;20944;-69
2023/01/16 13:31:53;;;;;;;2.13;0.70;;;5.50;99.90;;;;;;5067486;28;20288;-69
2023/01/16 13:34:24;;;;;;;1.33;0.97;;;5.50;99.90;;;;;;5053788;28;20223;-69
2023/01/16 13:37:22;;;;;;;1.53;1.00;;;5.40;99.90;;;;;;5040113;28;20224;-70
2023/01/16 13:40:12;;;;;;;1.23;0.90;;;5.50;99.90;;;;;;5051552;28;20682;-69
2023/01/16 13:42:49;;;;;;;4.37;1.30;;;5.60;99.90;;;;;;5001312;28;21826;-69
2023/01/16 13:48:11;;;;;;;2.50;1.00;;;5.60;99.90;;;;;;5070213;28;20228;-69
2023/01/16 13:50:38;;;;;;;2.87;0.73;;;5.70;99.90;;;;;;5073747;28;20198;-69
2023/01/16 13:53:08;;;;;;;2.83;1.23;;;5.70;99.90;;;;;;5052989;28;20696;-69
2023/01/16 13:55:39;;;;;;;1.70;1.20;;;5.60;99.90;;;;;;5065758;28;21218;-69
2023/01/16 13:58:15;;;;;;;1.17;1.00;;;5.70;99.90;;;;;;5055798;28;20314;-70
2023/01/16 14:00:44;;;;;;;12.83;4.33;;;5.70;99.90;;;;;;5059809;28;20327;-70
2023/01/16 14:03:21;;;;;;;10.33;3.60;;;5.60;99.90;;;;;;5054456;28;20308;-69
2023/01/16 14:05:50;;;;;;;10.57;5.03;;;5.70;99.90;;;;;;5056135;28;20199;-69
2023/01/16 14:09:08;;;;;;;7.50;3.80;;;5.70;99.90;;;;;;5036284;28;20215;-69
2023/01/16 14:11:38;;;;;;;2.23;1.30;;;5.60;99.90;;;;;;5063442;28;20241;-69
2023/01/16 14:17:18;;;;;;;1.77;1.23;;;5.60;99.90;;;;;;5058386;28;20210;-69
2023/01/16 14:19:59;;;;;;;4.07;1.43;;;5.60;99.90;;;;;;5076462;28;20198;-69
2023/01/16 14:25:22;;;;;;;1.20;0.93;;;5.60;99.90;;;;;;5070799;28;20257;-69
2023/01/16 14:27:54;;;;;;;4.50;1.27;;;5.60;99.90;;;;;;5065132;28;20215;-69